createdAt,value
2022-12-25T00:02:23.216Z,5.30
2022-12-25T00:04:50.302Z,4.20
2022-12-25T00:07:17.366Z,4.20
2022-12-25T00:09:44.475Z,5.37
2022-12-25T00:12:11.577Z,4.63
2022-12-25T00:14:38.681Z,4.13
2022-12-25T00:17:05.342Z,5.60
2022-12-25T00:19:32.004Z,4.77
2022-12-25T00:21:59.070Z,4.90
2022-12-25T00:24:25.739Z,5.17
2022-12-25T00:26:52.858Z,4.50
2022-12-25T00:29:19.532Z,3.90
2022-12-25T00:31:46.273Z,4.40
2022-12-25T00:34:13.417Z,4.13
2022-12-25T00:36:42.176Z,4.37
2022-12-25T00:39:09.883Z,4.50
2022-12-25T00:41:55.241Z,4.50
2022-12-25T00:44:22.372Z,4.23
2022-12-25T00:46:49.273Z,4.03
2022-12-25T00:49:16.028Z,4.70
2022-12-25T00:51:42.783Z,4.63
2022-12-25T00:54:09.908Z,4.20
2022-12-25T00:56:36.596Z,4.47
2022-12-25T00:59:03.874Z,4.13
2022-12-25T01:01:30.868Z,4.97
2022-12-25T01:03:57.892Z,4.50
2022-12-25T01:06:24.998Z,4.50
2022-12-25T01:09:10.189Z,4.93
2022-12-25T01:11:37.287Z,4.77
2022-12-25T01:14:04.360Z,4.43
2022-12-25T01:16:31.532Z,4.13
2022-12-25T01:18:58.335Z,3.93
2022-12-25T01:21:25.538Z,4.27
2022-12-25T01:23:53.143Z,4.93
2022-12-25T01:26:21.087Z,4.77
2022-12-25T01:28:48.719Z,3.93
2022-12-25T01:31:17.466Z,4.00
2022-12-25T01:33:45.230Z,4.30
2022-12-25T01:36:15.885Z,4.50
2022-12-25T01:38:43.661Z,3.70
2022-12-25T01:41:11.772Z,3.73
2022-12-25T01:43:56.440Z,4.10
2022-12-25T01:46:23.192Z,3.83
2022-12-25T01:48:51.604Z,3.63
2022-12-25T01:51:54.214Z,4.00
2022-12-25T01:54:25.243Z,3.90
2022-12-25T01:56:54.751Z,3.80
2022-12-25T01:59:23.591Z,3.60
2022-12-25T02:01:50.798Z,3.47
2022-12-25T02:04:41.213Z,3.63
2022-12-25T02:07:10.415Z,3.80
2022-12-25T02:09:37.928Z,3.90
2022-12-25T02:12:05.645Z,3.77
2022-12-25T02:14:35.171Z,3.67
2022-12-25T02:17:39.911Z,4.20
2022-12-25T02:20:06.986Z,3.30
2022-12-25T02:22:57.633Z,3.93
2022-12-25T02:25:39.359Z,3.70
2022-12-25T02:28:24.059Z,4.00
2022-12-25T02:30:54.979Z,3.47
2022-12-25T02:34:05.330Z,3.27
2022-12-25T02:36:50.422Z,3.47
2022-12-25T02:39:42.661Z,4.13
2022-12-25T02:42:12.737Z,3.53
2022-12-25T02:45:01.832Z,3.70
2022-12-25T02:47:54.844Z,3.50
2022-12-25T02:50:41.249Z,3.30
2022-12-25T02:53:27.731Z,3.30
2022-12-25T02:56:14.784Z,3.40
2022-12-25T02:59:02.196Z,3.03
2022-12-25T03:01:51.697Z,2.87
2022-12-25T03:04:40.386Z,3.53
2022-12-25T03:07:15.423Z,3.00
2022-12-25T03:10:17.630Z,3.00
2022-12-25T03:12:53.054Z,3.03
2022-12-25T03:15:39.329Z,3.50
2022-12-25T03:18:12.687Z,2.80
2022-12-25T03:20:58.591Z,2.97
2022-12-25T03:23:49.951Z,2.93
2022-12-25T03:26:36.006Z,3.60
2022-12-25T03:29:03.052Z,3.27
2022-12-25T03:31:54.255Z,3.10
2022-12-25T03:34:54.865Z,3.33
2022-12-25T03:37:53.904Z,2.83
2022-12-25T03:40:45.241Z,3.53
2022-12-25T03:44:00.220Z,3.77
2022-12-25T03:46:48.407Z,3.67
2022-12-25T03:49:45.523Z,3.63
2022-12-25T03:52:34.579Z,3.60
2022-12-25T03:55:23.229Z,3.20
2022-12-25T03:58:08.568Z,4.03
2022-12-25T04:00:54.360Z,3.47
2022-12-25T04:03:40.312Z,4.17
2022-12-25T04:06:26.157Z,3.60
2022-12-25T04:09:11.571Z,3.83
2022-12-25T04:12:02.570Z,3.43
2022-12-25T04:14:48.994Z,3.83
2022-12-25T04:17:34.979Z,3.40
2022-12-25T04:20:20.937Z,3.27
2022-12-25T04:23:06.820Z,3.57
2022-12-25T04:25:51.875Z,3.77
2022-12-25T04:28:37.673Z,3.20
2022-12-25T04:31:23.654Z,3.20
2022-12-25T04:34:09.571Z,3.73
2022-12-25T04:36:36.613Z,3.33
2022-12-25T04:39:03.429Z,3.33
2022-12-25T04:41:30.145Z,3.03
2022-12-25T04:43:57.203Z,3.13
2022-12-25T04:46:23.922Z,3.43
2022-12-25T04:48:51.024Z,3.50
2022-12-25T04:51:19.321Z,3.00
2022-12-25T04:53:47.291Z,3.83
2022-12-25T04:56:14.787Z,3.30
2022-12-25T04:58:42.137Z,3.30
2022-12-25T05:01:09.308Z,3.40
2022-12-25T05:03:36.439Z,3.60
2022-12-25T05:06:03.664Z,3.00
2022-12-25T05:08:31.135Z,2.70
2022-12-25T05:10:58.452Z,3.57
2022-12-25T05:13:25.357Z,3.17
2022-12-25T05:15:52.783Z,3.10
2022-12-25T05:18:19.492Z,2.90
2022-12-25T05:20:55.113Z,3.00
2022-12-25T05:23:22.636Z,2.90
2022-12-25T05:25:49.448Z,3.20
2022-12-25T05:28:16.124Z,3.10
2022-12-25T05:30:43.208Z,2.97
2022-12-25T05:33:09.894Z,2.97
2022-12-25T05:35:38.149Z,3.03
2022-12-25T05:38:05.646Z,3.30
2022-12-25T05:40:32.586Z,3.03
2022-12-25T05:42:59.773Z,3.73
2022-12-25T05:45:26.873Z,3.20
2022-12-25T05:47:53.955Z,2.70
2022-12-25T05:50:21.036Z,3.47
2022-12-25T05:52:48.129Z,3.30
2022-12-25T05:55:14.860Z,3.30
2022-12-25T05:57:41.486Z,3.17
2022-12-25T06:00:08.849Z,2.93
2022-12-25T06:02:36.315Z,2.80
2022-12-25T06:05:04.465Z,3.17
2022-12-25T06:07:31.357Z,2.90
2022-12-25T06:09:58.025Z,3.63
2022-12-25T06:12:25.079Z,3.13
2022-12-25T06:14:52.182Z,3.00
2022-12-25T06:17:19.240Z,3.00
2022-12-25T06:19:45.887Z,2.90
2022-12-25T06:22:12.537Z,2.80
2022-12-25T06:24:40.684Z,3.67
2022-12-25T06:27:07.407Z,3.03
2022-12-25T06:29:34.076Z,3.13
2022-12-25T06:32:00.819Z,2.77
2022-12-25T06:34:28.113Z,3.10
2022-12-25T06:36:54.941Z,3.40
2022-12-25T06:39:22.174Z,3.03
2022-12-25T06:41:48.799Z,3.23
2022-12-25T06:44:15.495Z,3.27
2022-12-25T06:46:42.191Z,2.80
2022-12-25T06:49:10.190Z,3.10
2022-12-25T06:51:37.053Z,2.80
2022-12-25T06:54:04.289Z,2.90
2022-12-25T06:56:32.141Z,2.73
2022-12-25T06:59:04.071Z,2.80
2022-12-25T07:01:53.596Z,3.27
2022-12-25T07:04:33.501Z,3.23
2022-12-25T07:07:06.192Z,3.13
2022-12-25T07:09:35.612Z,3.13
2022-12-25T07:12:04.120Z,3.20
2022-12-25T07:14:31.190Z,3.37
2022-12-25T07:16:57.878Z,3.47
2022-12-25T07:19:24.723Z,3.27
2022-12-25T07:21:51.424Z,3.57
2022-12-25T07:24:20.179Z,3.47
2022-12-25T07:26:46.996Z,3.50
2022-12-25T07:29:13.789Z,3.43
2022-12-25T07:31:40.560Z,3.90
2022-12-25T07:34:07.219Z,3.47
2022-12-25T07:36:34.337Z,3.50
2022-12-25T07:39:01.059Z,3.47
2022-12-25T07:41:28.150Z,3.60
2022-12-25T07:43:55.359Z,3.53
2022-12-25T07:46:23.310Z,3.87
2022-12-25T07:48:50.699Z,3.90
2022-12-25T07:51:17.400Z,3.93
2022-12-25T07:53:44.586Z,4.30
2022-12-25T07:56:14.654Z,4.33
2022-12-25T07:58:41.644Z,4.47
2022-12-25T08:01:17.706Z,3.80
2022-12-25T08:03:45.313Z,4.07
2022-12-25T08:06:12.162Z,4.67
2022-12-25T08:08:40.182Z,4.10
2022-12-25T08:11:09.623Z,4.00
2022-12-25T08:13:37.141Z,3.90
2022-12-25T08:16:08.496Z,3.70
2022-12-25T08:18:37.022Z,4.20
2022-12-25T08:21:13.162Z,4.30
2022-12-25T08:23:42.583Z,4.30
2022-12-25T08:26:13.449Z,3.93
2022-12-25T08:28:40.246Z,4.00
2022-12-25T08:31:30.652Z,4.20
2022-12-25T08:33:58.945Z,4.00
2022-12-25T08:36:25.855Z,4.27
2022-12-25T08:38:55.634Z,4.33
2022-12-25T08:41:25.720Z,4.70
2022-12-25T08:43:52.925Z,4.60
2022-12-25T08:46:20.184Z,4.37
2022-12-25T08:48:48.784Z,4.43
2022-12-25T08:51:18.850Z,4.47
2022-12-25T08:53:47.614Z,4.33
2022-12-25T08:56:15.719Z,5.77
2022-12-25T08:58:43.242Z,4.13
2022-12-25T09:01:11.199Z,4.33
2022-12-25T09:03:38.264Z,5.10
2022-12-25T09:06:07.540Z,4.50
2022-12-25T09:08:35.782Z,4.27
2022-12-25T09:11:07.871Z,4.60
2022-12-25T09:13:35.363Z,4.73
2022-12-25T09:16:07.299Z,4.57
2022-12-25T09:18:34.145Z,4.47
2022-12-25T09:21:05.776Z,4.77
2022-12-25T09:23:33.507Z,4.57
2022-12-25T09:26:01.122Z,4.90
2022-12-25T09:28:28.029Z,4.17
2022-12-25T09:30:55.509Z,3.70
2022-12-25T09:33:23.253Z,4.50
2022-12-25T09:35:54.776Z,4.17
2022-12-25T09:38:21.739Z,4.17
2022-12-25T09:40:48.892Z,5.30
2022-12-25T09:43:20.778Z,4.00
2022-12-25T09:45:48.201Z,4.43
2022-12-25T09:48:16.332Z,4.10
2022-12-25T09:50:59.962Z,4.17
2022-12-25T09:53:32.532Z,3.67
2022-12-25T09:56:11.369Z,4.63
2022-12-25T09:58:38.245Z,5.07
2022-12-25T10:01:20.964Z,4.60
2022-12-25T10:03:53.921Z,4.97
2022-12-25T10:06:34.463Z,5.33
2022-12-25T10:09:39.750Z,5.13
2022-12-25T10:12:40.474Z,4.73
2022-12-25T10:15:07.133Z,5.37
2022-12-25T10:17:34.169Z,5.10
2022-12-25T10:20:03.850Z,4.50
2022-12-25T10:22:41.899Z,5.63
2022-12-25T10:25:20.927Z,5.27
2022-12-25T10:27:52.897Z,4.60
2022-12-25T10:30:22.720Z,5.33
2022-12-25T10:32:50.853Z,5.20
2022-12-25T10:35:20.795Z,4.63
2022-12-25T10:38:01.195Z,4.30
2022-12-25T10:40:36.865Z,5.47
2022-12-25T10:43:35.026Z,5.47
2022-12-25T10:46:01.760Z,5.10
2022-12-25T10:48:31.429Z,4.93
2022-12-25T10:50:58.245Z,4.83
2022-12-25T10:53:36.817Z,4.83
2022-12-25T10:56:05.667Z,4.90
2022-12-25T10:58:33.807Z,4.37
2022-12-25T11:01:03.792Z,3.93
2022-12-25T11:03:34.593Z,4.50
2022-12-25T11:06:02.729Z,5.10
2022-12-25T11:08:32.994Z,4.40
2022-12-25T11:11:11.088Z,5.33
2022-12-25T11:13:47.457Z,5.60
2022-12-25T11:16:25.687Z,4.87
2022-12-25T11:18:54.380Z,4.93
2022-12-25T11:21:29.048Z,4.77
2022-12-25T11:24:07.115Z,5.03
2022-12-25T11:26:54.073Z,4.80
2022-12-25T11:29:43.919Z,5.00
2022-12-25T11:32:29.763Z,4.50
2022-12-25T11:34:58.237Z,5.17
2022-12-25T11:37:39.505Z,5.00
2022-12-25T11:40:07.074Z,4.47
2022-12-25T11:42:37.302Z,5.67
2022-12-25T11:45:10.819Z,4.50
2022-12-25T11:47:46.293Z,4.23
2022-12-25T11:50:23.676Z,4.20
2022-12-25T11:52:52.078Z,4.97
2022-12-25T11:55:39.781Z,4.87
2022-12-25T11:58:36.290Z,5.10
2022-12-25T12:01:11.841Z,4.43
2022-12-25T12:03:42.031Z,4.03
2022-12-25T12:06:25.733Z,4.77
2022-12-25T12:08:56.391Z,5.73
2022-12-25T12:11:37.151Z,4.47
2022-12-25T12:14:43.154Z,6.20
2022-12-25T12:17:19.595Z,5.60
2022-12-25T12:19:46.525Z,5.40
2022-12-25T12:22:24.983Z,5.40
2022-12-25T12:24:55.131Z,5.23
2022-12-25T12:27:27.479Z,4.97
2022-12-25T12:29:56.198Z,4.70
2022-12-25T12:32:35.063Z,6.20
2022-12-25T12:35:09.981Z,5.00
2022-12-25T12:37:38.816Z,6.50
2022-12-25T12:40:07.283Z,5.53
2022-12-25T12:42:40.371Z,5.20
2022-12-25T12:45:18.959Z,5.67
2022-12-25T12:47:47.677Z,5.30
2022-12-25T12:50:35.297Z,5.13
2022-12-25T12:53:23.953Z,6.20
2022-12-25T12:55:52.048Z,5.23
2022-12-25T12:58:35.541Z,5.20
2022-12-25T13:01:20.497Z,5.90
2022-12-25T13:03:58.894Z,5.90
2022-12-25T13:07:02.410Z,5.40
2022-12-25T13:09:32.116Z,5.03
2022-12-25T13:11:59.268Z,6.20
2022-12-25T13:14:26.411Z,6.30
2022-12-25T13:16:54.585Z,6.40
2022-12-25T13:19:23.202Z,5.83
2022-12-25T13:21:57.946Z,5.87
2022-12-25T13:24:29.558Z,6.47
2022-12-25T13:26:56.316Z,6.43
2022-12-25T13:29:24.205Z,5.90
2022-12-25T13:31:51.398Z,5.57
2022-12-25T13:34:31.642Z,5.53
2022-12-25T13:36:59.991Z,5.97
2022-12-25T13:39:27.243Z,5.47
2022-12-25T13:42:09.296Z,6.50
2022-12-25T13:44:58.107Z,5.90
2022-12-25T13:47:35.111Z,6.03
2022-12-25T13:50:21.604Z,8.03
2022-12-25T13:52:48.870Z,9.73
2022-12-25T13:55:23.548Z,13.50
2022-12-25T13:57:53.262Z,6.23
2022-12-25T14:00:27.156Z,5.93
2022-12-25T14:02:54.704Z,18.77
2022-12-25T14:05:41.358Z,5.80
2022-12-25T14:08:21.447Z,5.80
2022-12-25T14:10:51.096Z,5.60
2022-12-25T14:13:22.465Z,5.90
2022-12-25T14:15:53.574Z,6.70
2022-12-25T14:18:23.280Z,7.20
2022-12-25T14:20:59.285Z,6.50
2022-12-25T14:23:26.584Z,6.47
2022-12-25T14:25:53.765Z,6.40
2022-12-25T14:28:24.839Z,6.30
2022-12-25T14:30:52.282Z,5.80
2022-12-25T14:33:22.836Z,6.20
2022-12-25T14:35:50.243Z,6.30
2022-12-25T14:38:34.888Z,5.43
2022-12-25T14:41:02.688Z,6.00
2022-12-25T14:43:30.928Z,6.10
2022-12-25T14:46:02.853Z,6.33
2022-12-25T14:48:31.279Z,6.03
2022-12-25T14:51:17.272Z,6.50
2022-12-25T14:53:55.790Z,6.10
2022-12-25T14:56:23.694Z,5.63
2022-12-25T14:58:55.806Z,5.90
2022-12-25T15:01:27.324Z,6.20
2022-12-25T15:04:09.432Z,5.80
2022-12-25T15:06:37.148Z,6.27
2022-12-25T15:09:09.090Z,6.00
2022-12-25T15:11:35.742Z,5.87
2022-12-25T15:14:02.377Z,6.00
2022-12-25T15:16:34.400Z,6.53
2022-12-25T15:19:02.524Z,5.90
2022-12-25T15:21:31.485Z,5.93
2022-12-25T15:23:59.854Z,6.40
2022-12-25T15:26:28.083Z,5.93
2022-12-25T15:28:55.182Z,5.60
2022-12-25T15:31:25.508Z,6.07
2022-12-25T15:33:56.497Z,6.00
2022-12-25T15:36:23.974Z,6.30
2022-12-25T15:38:51.469Z,5.77
2022-12-25T15:41:45.808Z,6.50
2022-12-25T15:44:13.340Z,6.07
2022-12-25T15:46:40.090Z,6.77
2022-12-25T15:49:07.274Z,6.37
2022-12-25T15:51:34.454Z,6.97
2022-12-25T15:54:01.567Z,6.60
2022-12-25T15:56:29.486Z,6.23
2022-12-25T15:58:56.324Z,6.90
2022-12-25T16:01:23.502Z,6.70
2022-12-25T16:03:50.300Z,6.93
2022-12-25T16:06:18.504Z,6.87
2022-12-25T16:08:46.208Z,6.60
2022-12-25T16:11:13.351Z,6.83
2022-12-25T16:13:40.415Z,6.20
2022-12-25T16:16:07.685Z,7.23
2022-12-25T16:18:34.517Z,6.90
2022-12-25T16:21:01.680Z,7.00
2022-12-25T16:23:28.765Z,6.17
2022-12-25T16:25:55.417Z,6.20
2022-12-25T16:28:22.119Z,6.40
2022-12-25T16:30:49.327Z,6.67
2022-12-25T16:33:16.061Z,6.87
2022-12-25T16:35:44.043Z,6.20
2022-12-25T16:38:11.736Z,6.20
2022-12-25T16:40:38.859Z,6.30
2022-12-25T16:43:05.641Z,5.80
2022-12-25T16:45:32.735Z,5.80
2022-12-25T16:47:59.816Z,5.73
2022-12-25T16:50:26.531Z,5.40
2022-12-25T16:52:53.645Z,6.17
2022-12-25T16:55:25.021Z,5.83
2022-12-25T16:57:54.554Z,5.50
2022-12-25T17:00:21.993Z,5.40
2022-12-25T17:02:48.744Z,5.70
2022-12-25T17:05:16.017Z,6.00
2022-12-25T17:07:45.025Z,5.80
2022-12-25T17:10:12.162Z,5.30
2022-12-25T17:12:39.225Z,5.40
2022-12-25T17:15:07.865Z,5.70
2022-12-25T17:17:34.924Z,6.03
2022-12-25T17:20:02.033Z,6.13
2022-12-25T17:22:29.145Z,5.80
2022-12-25T17:24:55.811Z,5.47
2022-12-25T17:27:22.915Z,5.37
2022-12-25T17:29:49.611Z,5.97
2022-12-25T17:32:16.273Z,5.80
2022-12-25T17:34:43.349Z,6.27
2022-12-25T17:37:10.435Z,5.57
2022-12-25T17:39:38.533Z,5.67
2022-12-25T17:42:05.634Z,5.80
2022-12-25T17:44:32.814Z,5.30
2022-12-25T17:47:00.165Z,5.33
2022-12-25T17:49:26.872Z,5.90
2022-12-25T17:51:54.685Z,5.60
2022-12-25T17:54:21.829Z,5.30
2022-12-25T17:56:49.302Z,5.63
2022-12-25T17:59:18.249Z,5.60
2022-12-25T18:01:46.026Z,5.53
2022-12-25T18:04:13.309Z,5.57
2022-12-25T18:06:40.584Z,5.80
2022-12-25T18:09:07.847Z,5.10
2022-12-25T18:11:36.812Z,5.47
2022-12-25T18:14:05.159Z,5.73
2022-12-25T18:16:34.240Z,5.73
2022-12-25T18:19:01.983Z,6.40
2022-12-25T18:21:28.926Z,6.03
2022-12-25T18:23:56.292Z,5.83
2022-12-25T18:26:24.967Z,5.20
2022-12-25T18:28:51.921Z,6.60
2022-12-25T18:31:23.514Z,5.73
2022-12-25T18:33:51.487Z,6.17
2022-12-25T18:36:20.407Z,5.57
2022-12-25T18:38:48.026Z,5.53
2022-12-25T18:41:15.001Z,5.83
2022-12-25T18:43:52.779Z,5.33
2022-12-25T18:46:26.686Z,5.93
2022-12-25T18:48:55.844Z,5.60
2022-12-25T18:51:23.162Z,5.20
2022-12-25T18:53:50.902Z,5.80
2022-12-25T18:56:18.650Z,6.20
2022-12-25T18:58:46.210Z,5.50
2022-12-25T19:01:17.461Z,5.20
2022-12-25T19:03:45.165Z,6.13
2022-12-25T19:06:23.114Z,5.80
2022-12-25T19:08:49.886Z,5.20
2022-12-25T19:11:17.035Z,7.50
2022-12-25T19:13:44.412Z,10.23
2022-12-25T19:16:11.747Z,7.13
2022-12-25T19:18:39.481Z,6.97
2022-12-25T19:21:07.866Z,7.43
2022-12-25T19:23:34.930Z,6.27
2022-12-25T19:26:04.110Z,6.80
2022-12-25T19:28:30.849Z,6.23
2022-12-25T19:30:59.783Z,8.27
2022-12-25T19:33:26.504Z,6.90
2022-12-25T19:35:53.707Z,6.20
2022-12-25T19:38:20.866Z,7.57
2022-12-25T19:41:08.253Z,5.00
2022-12-25T19:43:38.782Z,4.93
2022-12-25T19:46:06.623Z,4.63
2022-12-25T19:48:34.072Z,4.90
2022-12-25T19:51:00.993Z,4.30
2022-12-25T19:53:30.127Z,6.20
2022-12-25T19:56:01.409Z,4.47
2022-12-25T19:58:28.146Z,4.30
2022-12-25T20:00:59.076Z,4.57
2022-12-25T20:03:26.488Z,4.33
2022-12-25T20:05:53.811Z,5.33
2022-12-25T20:08:20.546Z,5.40
2022-12-25T20:10:47.691Z,4.53
2022-12-25T20:13:14.764Z,4.57
2022-12-25T20:15:42.028Z,5.50
2022-12-25T20:18:08.814Z,4.23
2022-12-25T20:20:36.008Z,4.80
2022-12-25T20:23:03.906Z,4.23
2022-12-25T20:25:31.103Z,4.63
2022-12-25T20:27:58.239Z,4.37
2022-12-25T20:30:25.314Z,5.20
2022-12-25T20:32:52.432Z,4.47
2022-12-25T20:35:19.211Z,4.73
2022-12-25T20:37:46.293Z,5.00
2022-12-25T20:40:13.605Z,5.17
2022-12-25T20:42:40.816Z,5.50
2022-12-25T20:45:07.988Z,4.67
2022-12-25T20:47:35.130Z,5.00
2022-12-25T20:50:02.023Z,5.03
2022-12-25T20:52:29.224Z,5.00
2022-12-25T20:54:55.964Z,5.00
2022-12-25T20:57:23.091Z,5.10
2022-12-25T20:59:49.751Z,4.77
2022-12-25T21:02:34.725Z,5.10
2022-12-25T21:05:03.453Z,5.10
2022-12-25T21:07:30.249Z,5.20
2022-12-25T21:09:57.348Z,4.70
2022-12-25T21:12:24.414Z,5.23
2022-12-25T21:14:51.729Z,4.23
2022-12-25T21:17:18.439Z,5.17
2022-12-25T21:19:45.499Z,5.57
2022-12-25T21:22:12.558Z,6.00
2022-12-25T21:24:39.625Z,5.60
2022-12-25T21:27:06.707Z,4.60
2022-12-25T21:29:33.452Z,5.23
2022-12-25T21:32:19.333Z,5.10
2022-12-25T21:34:46.012Z,5.00
2022-12-25T21:37:13.081Z,4.80
2022-12-25T21:39:40.193Z,5.13
2022-12-25T21:42:07.314Z,5.00
2022-12-25T21:44:34.467Z,4.87
2022-12-25T21:47:01.610Z,4.63
2022-12-25T21:49:47.105Z,4.70
2022-12-25T21:52:14.171Z,8.37
2022-12-25T21:54:41.231Z,4.87
2022-12-25T21:57:08.327Z,4.47
2022-12-25T21:59:34.990Z,4.40
2022-12-25T22:02:02.173Z,6.90
2022-12-25T22:04:29.287Z,5.57
2022-12-25T22:07:14.970Z,5.40
2022-12-25T22:09:43.895Z,4.80
2022-12-25T22:12:34.072Z,4.17
2022-12-25T22:15:11.114Z,3.80
2022-12-25T22:18:01.508Z,3.70
2022-12-25T22:20:34.445Z,3.87
2022-12-25T22:23:01.192Z,3.77
2022-12-25T22:25:28.028Z,4.53
2022-12-25T22:27:55.689Z,3.93
2022-12-25T22:30:27.301Z,3.93
2022-12-25T22:32:54.675Z,3.50
2022-12-25T22:35:21.539Z,4.00
2022-12-25T22:37:49.485Z,5.10
2022-12-25T22:40:17.340Z,3.30
2022-12-25T22:42:44.103Z,3.23
2022-12-25T22:45:11.729Z,3.70
2022-12-25T22:47:38.669Z,3.77
2022-12-25T22:50:06.094Z,3.13
2022-12-25T22:52:32.897Z,3.37
2022-12-25T22:55:00.027Z,4.10
2022-12-25T22:57:27.173Z,3.13
2022-12-25T22:59:54.274Z,3.17
2022-12-25T23:02:21.386Z,2.90
2022-12-25T23:04:48.611Z,2.50
2022-12-25T23:07:15.703Z,3.20
2022-12-25T23:09:43.081Z,3.53
2022-12-25T23:12:30.384Z,5.80
2022-12-25T23:14:57.673Z,8.37
2022-12-25T23:17:43.593Z,3.33
2022-12-25T23:20:32.027Z,7.53
2022-12-25T23:23:17.969Z,4.67
2022-12-25T23:26:03.842Z,2.93
2022-12-25T23:28:49.303Z,2.53
2022-12-25T23:31:16.072Z,2.80
2022-12-25T23:33:42.784Z,3.10
2022-12-25T23:36:09.669Z,3.50
2022-12-25T23:38:39.116Z,2.87
2022-12-25T23:41:05.899Z,3.43
2022-12-25T23:43:32.536Z,3.20
2022-12-25T23:45:59.384Z,3.17
2022-12-25T23:48:26.606Z,2.63
2022-12-25T23:50:53.296Z,3.30
2022-12-25T23:53:20.361Z,2.53
2022-12-25T23:55:53.367Z,2.60
2022-12-25T23:58:22.553Z,2.60
